createdAt,value
2019-02-02T00:00:39.505Z,132.10
2019-02-02T00:03:08.285Z,120.53
2019-02-02T00:05:36.983Z,118.53
2019-02-02T00:08:06.458Z,117.03
2019-02-02T00:10:35.190Z,121.00
2019-02-02T00:13:03.938Z,98.87
2019-02-02T00:15:32.680Z,106.27
2019-02-02T00:18:01.314Z,114.13
2019-02-02T00:20:30.077Z,117.47
2019-02-02T00:22:58.716Z,113.07
2019-02-02T00:25:31.650Z,113.73
2019-02-02T00:28:00.289Z,111.23
2019-02-02T00:30:28.910Z,108.70
2019-02-02T00:32:57.758Z,102.47
2019-02-02T00:35:26.434Z,102.50
2019-02-02T00:37:55.110Z,103.10
2019-02-02T00:40:23.741Z,108.93
2019-02-02T00:42:52.429Z,109.80
2019-02-02T00:45:22.278Z,121.53
2019-02-02T00:47:51.263Z,119.33
2019-02-02T00:50:21.218Z,118.40
2019-02-02T00:52:49.807Z,113.23
2019-02-02T00:55:19.464Z,115.80
2019-02-02T00:57:53.458Z,111.40
2019-02-02T01:00:28.943Z,110.53
2019-02-02T01:02:57.584Z,119.37
2019-02-02T01:05:30.119Z,131.90
2019-02-02T01:07:58.802Z,133.33
2019-02-02T01:10:32.664Z,132.97
2019-02-02T01:13:01.327Z,161.47
2019-02-02T01:15:30.109Z,162.07
2019-02-02T01:17:58.897Z,169.63
2019-02-02T01:20:27.538Z,139.83
2019-02-02T01:22:56.175Z,131.67
2019-02-02T01:25:24.917Z,118.93
2019-02-02T01:28:04.527Z,113.23
2019-02-02T01:30:26.410Z,107.50
2019-02-02T01:32:55.070Z,105.17
2019-02-02T01:35:26.419Z,101.67
2019-02-02T01:37:55.107Z,99.20
2019-02-02T01:40:26.271Z,91.27
2019-02-02T01:42:55.104Z,90.30
2019-02-02T01:45:30.168Z,77.23
2019-02-02T01:47:59.101Z,77.43
2019-02-02T01:50:28.842Z,72.23
2019-02-02T01:52:57.579Z,70.63
2019-02-02T01:55:26.408Z,66.60
2019-02-02T01:57:55.031Z,67.00
2019-02-02T02:00:31.804Z,71.67
2019-02-02T02:03:00.466Z,73.73
2019-02-02T02:05:29.103Z,74.63
2019-02-02T02:08:03.562Z,83.13
2019-02-02T02:10:32.244Z,80.27
2019-02-02T02:13:00.881Z,89.73
2019-02-02T02:15:29.562Z,89.00
2019-02-02T02:17:58.251Z,91.93
2019-02-02T02:20:27.217Z,89.77
2019-02-02T02:22:55.855Z,89.07
2019-02-02T02:25:24.534Z,96.03
2019-02-02T02:27:53.273Z,89.03
2019-02-02T02:30:24.621Z,87.57
2019-02-02T02:32:57.927Z,81.47
2019-02-02T02:35:26.567Z,82.07
2019-02-02T02:37:58.006Z,80.37
2019-02-02T02:40:26.642Z,79.47
2019-02-02T02:42:55.322Z,76.50
2019-02-02T02:45:24.001Z,81.20
2019-02-02T02:47:52.634Z,81.83
2019-02-02T02:50:22.983Z,82.57
2019-02-02T02:52:51.652Z,91.03
2019-02-02T02:55:20.340Z,86.10
2019-02-02T02:57:48.968Z,87.23
2019-02-02T03:00:27.918Z,90.67
2019-02-02T03:02:56.536Z,87.87
2019-02-02T03:05:25.331Z,85.37
2019-02-02T03:07:54.901Z,94.87
2019-02-02T03:10:25.287Z,80.40
2019-02-02T03:12:54.222Z,92.93
2019-02-02T03:15:22.902Z,91.90
2019-02-02T03:17:52.827Z,85.97
2019-02-02T03:20:24.388Z,85.27
2019-02-02T03:22:52.966Z,82.53
2019-02-02T03:25:24.298Z,89.60
2019-02-02T03:27:52.931Z,93.30
2019-02-02T03:30:22.502Z,99.33
2019-02-02T03:32:51.251Z,93.17
2019-02-02T03:35:22.735Z,89.83
2019-02-02T03:37:51.570Z,87.80
2019-02-02T03:40:22.597Z,89.67
2019-02-02T03:42:51.228Z,96.63
2019-02-02T03:45:23.980Z,93.27
2019-02-02T03:47:53.835Z,99.60
2019-02-02T03:50:22.598Z,95.40
2019-02-02T03:52:51.251Z,93.90
2019-02-02T03:55:19.868Z,96.67
2019-02-02T03:57:48.640Z,95.73
2019-02-02T04:00:21.807Z,102.40
2019-02-02T04:02:50.490Z,106.80
2019-02-02T04:05:31.351Z,105.30
2019-02-02T04:08:00.027Z,106.67
2019-02-02T04:10:28.670Z,100.90
2019-02-02T04:12:57.348Z,99.37
2019-02-02T04:15:25.981Z,106.47
2019-02-02T04:17:54.658Z,99.83
2019-02-02T04:20:23.799Z,110.73
2019-02-02T04:22:52.536Z,108.67
2019-02-02T04:25:22.312Z,109.90
2019-02-02T04:27:51.450Z,106.20
2019-02-02T04:30:22.601Z,100.60
2019-02-02T04:32:51.237Z,98.97
2019-02-02T04:35:20.195Z,96.77
2019-02-02T04:37:48.916Z,91.53
2019-02-02T04:40:17.599Z,93.10
2019-02-02T04:42:46.332Z,96.07
2019-02-02T04:45:18.708Z,95.40
2019-02-02T04:47:47.452Z,94.13
2019-02-02T04:50:18.528Z,93.27
2019-02-02T04:52:47.203Z,100.40
2019-02-02T04:55:17.736Z,101.27
2019-02-02T04:57:46.419Z,101.20
2019-02-02T05:00:19.053Z,104.83
2019-02-02T05:02:47.737Z,102.60
2019-02-02T05:05:18.278Z,110.20
2019-02-02T05:07:47.102Z,106.63
2019-02-02T05:10:21.184Z,104.70
2019-02-02T05:12:50.010Z,112.50
2019-02-02T05:15:18.592Z,113.37
2019-02-02T05:17:47.297Z,110.67
2019-02-02T05:20:18.748Z,120.57
2019-02-02T05:22:50.170Z,142.43
2019-02-02T05:25:18.859Z,148.70
2019-02-02T05:27:47.492Z,141.17
2019-02-02T05:30:26.242Z,121.53
2019-02-02T05:32:54.877Z,135.63
2019-02-02T05:35:23.618Z,141.30
2019-02-02T05:37:52.261Z,133.23
2019-02-02T05:40:22.498Z,163.40
2019-02-02T05:42:52.104Z,149.37
2019-02-02T05:45:23.107Z,149.30
2019-02-02T05:47:51.678Z,139.80
2019-02-02T05:50:22.162Z,111.33
2019-02-02T05:52:55.232Z,56.43
2019-02-02T05:55:24.076Z,44.30
2019-02-02T05:57:54.385Z,47.10
2019-02-02T06:00:33.503Z,56.80
2019-02-02T06:03:02.146Z,89.23
2019-02-02T06:05:30.787Z,80.17
2019-02-02T06:07:59.462Z,85.37
2019-02-02T06:10:28.110Z,70.53
2019-02-02T06:12:56.751Z,76.13
2019-02-02T06:15:28.430Z,66.50
2019-02-02T06:17:55.839Z,66.53
2019-02-02T06:20:24.418Z,72.30
2019-02-02T06:22:53.157Z,62.93
2019-02-02T06:25:22.129Z,68.80
2019-02-02T06:27:53.723Z,64.17
2019-02-02T06:30:24.151Z,48.53
2019-02-02T06:32:52.848Z,52.87
2019-02-02T06:35:21.452Z,53.37
2019-02-02T06:37:50.053Z,48.07
2019-02-02T06:40:18.778Z,49.70
2019-02-02T06:42:47.466Z,52.87
2019-02-02T06:45:20.303Z,58.50
2019-02-02T06:47:48.944Z,56.00
2019-02-02T06:50:18.121Z,54.60
2019-02-02T06:52:50.926Z,53.07
2019-02-02T06:55:19.566Z,50.67
2019-02-02T06:57:48.188Z,45.77
2019-02-02T07:00:30.846Z,39.93
2019-02-02T07:02:59.487Z,42.77
2019-02-02T07:05:28.120Z,42.57
2019-02-02T07:07:56.769Z,35.07
2019-02-02T07:10:27.987Z,35.03
2019-02-02T07:12:56.823Z,37.33
2019-02-02T07:15:30.119Z,36.83
2019-02-02T07:17:58.798Z,34.77
2019-02-02T07:20:27.432Z,33.10
2019-02-02T07:22:56.061Z,31.43
2019-02-02T07:25:24.668Z,31.03
2019-02-02T07:27:53.353Z,31.27
2019-02-02T07:30:28.722Z,33.37
2019-02-02T07:32:54.536Z,36.20
2019-02-02T07:35:24.114Z,35.17
2019-02-02T07:37:52.842Z,36.13
2019-02-02T07:40:22.420Z,42.27
2019-02-02T07:42:51.145Z,33.40
2019-02-02T07:45:28.407Z,43.20
2019-02-02T07:47:57.134Z,37.10
2019-02-02T07:50:25.922Z,32.87
2019-02-02T07:52:54.566Z,29.53
2019-02-02T07:55:24.065Z,29.67
2019-02-02T07:57:52.743Z,28.37
2019-02-02T08:00:40.447Z,27.20
2019-02-02T08:03:01.723Z,31.33
2019-02-02T08:05:30.401Z,33.20
2019-02-02T08:07:59.071Z,28.47
2019-02-02T08:10:27.759Z,25.43
2019-02-02T08:12:56.386Z,25.73
2019-02-02T08:15:30.547Z,26.40
2019-02-02T08:17:59.168Z,24.00
2019-02-02T08:20:30.430Z,21.13
2019-02-02T08:22:59.104Z,22.27
2019-02-02T08:25:32.318Z,27.23
2019-02-02T08:28:01.009Z,26.00
2019-02-02T08:30:31.762Z,24.57
2019-02-02T08:33:00.444Z,88.67
2019-02-02T08:35:29.085Z,22.80
2019-02-02T08:37:57.794Z,22.40
2019-02-02T08:40:26.554Z,19.67
2019-02-02T08:42:55.184Z,20.83
2019-02-02T08:45:23.812Z,20.93
2019-02-02T08:47:52.455Z,19.73
2019-02-02T08:50:29.319Z,21.23
2019-02-02T08:52:57.924Z,19.70
2019-02-02T08:55:26.552Z,20.33
2019-02-02T08:57:55.195Z,19.23
2019-02-02T09:00:23.906Z,17.10
2019-02-02T09:02:52.580Z,14.83
2019-02-02T09:05:22.910Z,14.63
2019-02-02T09:07:51.547Z,13.20
2019-02-02T09:10:22.210Z,14.00
2019-02-02T09:12:50.885Z,13.50
2019-02-02T09:15:19.977Z,13.17
2019-02-02T09:17:48.814Z,13.40
2019-02-02T09:20:17.587Z,18.83
2019-02-02T09:22:47.024Z,15.10
2019-02-02T09:25:18.054Z,16.93
2019-02-02T09:27:46.701Z,18.60
2019-02-02T09:30:23.542Z,19.77
2019-02-02T09:32:52.210Z,20.50
2019-02-02T09:35:20.837Z,19.27
2019-02-02T09:37:49.531Z,23.70
2019-02-02T09:40:21.418Z,15.77
2019-02-02T09:42:50.088Z,17.37
2019-02-02T09:45:21.626Z,19.70
2019-02-02T09:47:50.561Z,20.33
2019-02-02T09:50:21.563Z,19.10
2019-02-02T09:52:50.227Z,21.63
2019-02-02T09:55:23.587Z,19.23
2019-02-02T09:57:55.038Z,18.47
2019-02-02T10:00:26.436Z,17.47
2019-02-02T10:02:55.165Z,17.40
2019-02-02T10:05:23.914Z,21.40
2019-02-02T10:07:52.464Z,23.50
2019-02-02T10:10:22.995Z,23.43
2019-02-02T10:12:51.674Z,15.03
2019-02-02T10:15:23.257Z,14.77
2019-02-02T10:17:51.922Z,12.70
2019-02-02T10:20:25.521Z,12.17
2019-02-02T10:22:54.958Z,12.83
2019-02-02T10:25:25.805Z,13.80
2019-02-02T10:27:54.624Z,13.87
2019-02-02T10:30:28.841Z,12.63
2019-02-02T10:32:57.516Z,12.07
2019-02-02T10:35:26.261Z,15.20
2019-02-02T10:37:54.980Z,13.97
2019-02-02T10:40:23.571Z,13.53
2019-02-02T10:42:52.242Z,9.70
2019-02-02T10:45:20.888Z,10.40
2019-02-02T10:47:55.200Z,11.07
2019-02-02T10:50:27.263Z,11.97
2019-02-02T10:52:55.945Z,11.50
2019-02-02T10:55:27.335Z,11.40
2019-02-02T10:57:56.023Z,11.63
2019-02-02T11:00:27.181Z,15.33
2019-02-02T11:02:55.967Z,14.80
2019-02-02T11:05:24.590Z,14.63
2019-02-02T11:07:54.550Z,14.97
2019-02-02T11:10:28.997Z,15.33
2019-02-02T11:12:57.745Z,13.93
2019-02-02T11:15:26.866Z,13.87
2019-02-02T11:17:55.520Z,15.77
2019-02-02T11:20:32.808Z,15.07
2019-02-02T11:23:01.638Z,13.93
2019-02-02T11:25:30.392Z,13.73
2019-02-02T11:28:02.115Z,12.10
2019-02-02T11:30:31.433Z,13.63
2019-02-02T11:33:00.066Z,14.60
2019-02-02T11:35:28.738Z,14.40
2019-02-02T11:37:57.372Z,14.43
2019-02-02T11:40:33.761Z,16.33
2019-02-02T11:43:02.482Z,14.50
2019-02-02T11:45:31.151Z,15.67
2019-02-02T11:47:59.854Z,15.83
2019-02-02T11:50:28.530Z,16.30
2019-02-02T11:52:57.241Z,15.73
2019-02-02T11:55:27.214Z,17.13
2019-02-02T11:57:56.020Z,16.37
2019-02-02T12:00:29.959Z,18.23
2019-02-02T12:02:58.546Z,17.03
2019-02-02T12:05:27.312Z,16.30
2019-02-02T12:07:59.145Z,17.30
2019-02-02T12:10:32.460Z,17.70
2019-02-02T12:13:07.080Z,19.83
2019-02-02T12:15:35.751Z,19.40
2019-02-02T12:18:05.086Z,17.90
2019-02-02T12:20:33.882Z,19.70
2019-02-02T12:23:02.444Z,18.77
2019-02-02T12:25:33.775Z,20.03
2019-02-02T12:28:02.403Z,24.80
2019-02-02T12:30:33.076Z,28.97
2019-02-02T12:33:03.147Z,26.57
2019-02-02T12:35:31.995Z,28.70
2019-02-02T12:38:00.751Z,26.97
2019-02-02T12:40:29.525Z,24.97
2019-02-02T12:42:58.162Z,26.43
2019-02-02T12:45:32.635Z,24.43
2019-02-02T12:48:01.241Z,26.53
2019-02-02T12:50:29.871Z,26.30
2019-02-02T12:52:58.654Z,22.83
2019-02-02T12:55:27.283Z,24.23
2019-02-02T12:57:55.920Z,22.80
2019-02-02T13:00:24.646Z,21.80
2019-02-02T13:02:53.351Z,23.37
2019-02-02T13:05:26.112Z,21.57
2019-02-02T13:07:54.752Z,23.90
2019-02-02T13:10:26.079Z,23.73
2019-02-02T13:12:54.992Z,21.90
2019-02-02T13:15:24.013Z,21.27
2019-02-02T13:17:52.669Z,19.10
2019-02-02T13:20:21.306Z,19.60
2019-02-02T13:22:49.991Z,19.83
2019-02-02T13:25:21.077Z,19.60
2019-02-02T13:27:49.750Z,19.60
2019-02-02T13:30:21.350Z,19.83
2019-02-02T13:32:50.350Z,19.67
2019-02-02T13:35:19.867Z,19.53
2019-02-02T13:37:48.486Z,25.23
2019-02-02T13:40:19.409Z,25.80
2019-02-02T13:42:48.077Z,24.67
2019-02-02T13:45:18.797Z,24.73
2019-02-02T13:47:47.477Z,25.63
2019-02-02T13:50:18.137Z,26.40
2019-02-02T13:52:50.699Z,24.00
2019-02-02T13:55:22.248Z,24.23
2019-02-02T13:57:50.871Z,22.17
2019-02-02T14:00:30.991Z,22.87
2019-02-02T14:03:03.355Z,21.47
2019-02-02T14:05:30.124Z,23.70
2019-02-02T14:08:00.281Z,23.20
2019-02-02T14:10:36.921Z,21.77
2019-02-02T14:13:05.537Z,22.37
2019-02-02T14:15:34.224Z,22.43
2019-02-02T14:18:02.933Z,22.53
2019-02-02T14:20:31.598Z,21.93
2019-02-02T14:23:00.306Z,21.73
2019-02-02T14:25:29.053Z,22.57
2019-02-02T14:27:57.762Z,24.40
2019-02-02T14:30:27.126Z,24.33
2019-02-02T14:32:55.799Z,24.50
2019-02-02T14:35:28.372Z,25.60
2019-02-02T14:37:57.082Z,28.90
2019-02-02T14:40:28.549Z,24.80
2019-02-02T14:42:57.360Z,24.50
2019-02-02T14:45:27.712Z,23.53
2019-02-02T14:47:56.727Z,21.57
2019-02-02T14:50:25.686Z,20.83
2019-02-02T14:52:54.877Z,20.73
2019-02-02T14:55:26.959Z,20.57
2019-02-02T14:57:55.684Z,20.83
2019-02-02T15:00:26.308Z,19.47
2019-02-02T15:02:55.287Z,20.53
2019-02-02T15:05:23.894Z,22.60
2019-02-02T15:07:53.220Z,23.27
2019-02-02T15:10:22.866Z,24.37
2019-02-02T15:12:51.524Z,25.10
2019-02-02T15:15:20.146Z,28.30
2019-02-02T15:17:51.796Z,28.03
2019-02-02T15:20:25.957Z,27.93
2019-02-02T15:22:54.762Z,33.83
2019-02-02T15:25:23.996Z,46.47
2019-02-02T15:27:55.400Z,32.00
2019-02-02T15:30:32.788Z,39.60
2019-02-02T15:33:01.606Z,50.60
2019-02-02T15:35:30.341Z,54.77
2019-02-02T15:38:02.143Z,54.63
2019-02-02T15:40:32.295Z,58.23
2019-02-02T15:43:04.249Z,94.13
2019-02-02T15:45:33.283Z,72.13
2019-02-02T15:48:01.960Z,83.87
2019-02-02T15:50:30.629Z,82.17
2019-02-02T15:52:59.190Z,73.57
2019-02-02T15:55:27.951Z,82.10
2019-02-02T15:57:56.709Z,70.77
2019-02-02T16:00:33.764Z,78.13
2019-02-02T16:03:05.232Z,91.47
2019-02-02T16:05:35.642Z,77.30
2019-02-02T16:08:07.360Z,97.60
2019-02-02T16:10:36.227Z,99.37
2019-02-02T16:13:05.236Z,102.33
2019-02-02T16:15:34.693Z,95.77
2019-02-02T16:18:03.457Z,71.17
2019-02-02T16:20:37.754Z,92.67
2019-02-02T16:23:09.420Z,78.00
2019-02-02T16:25:38.133Z,83.43
2019-02-02T16:28:07.011Z,70.97
2019-02-02T16:30:35.634Z,62.57
2019-02-02T16:33:04.463Z,53.30
2019-02-02T16:35:35.932Z,42.63
2019-02-02T16:38:04.696Z,43.97
2019-02-02T16:40:33.387Z,44.33
2019-02-02T16:43:02.811Z,44.17
2019-02-02T16:45:36.555Z,47.13
2019-02-02T16:48:05.851Z,47.67
2019-02-02T16:50:37.479Z,50.07
2019-02-02T16:53:11.943Z,52.07
2019-02-02T16:55:47.048Z,51.17
2019-02-02T16:58:15.732Z,62.10
2019-02-02T17:00:44.418Z,57.53
2019-02-02T17:03:12.975Z,73.60
2019-02-02T17:05:41.593Z,86.50
2019-02-02T17:08:10.521Z,84.80
2019-02-02T17:10:39.217Z,97.37
2019-02-02T17:13:08.106Z,107.70
2019-02-02T17:15:39.986Z,155.63
2019-02-02T17:18:09.398Z,187.73
2019-02-02T17:20:45.130Z,213.90
2019-02-02T17:23:13.686Z,249.13
2019-02-02T17:25:42.443Z,147.73
2019-02-02T17:28:11.176Z,235.00
2019-02-02T17:30:43.322Z,173.27
2019-02-02T17:33:13.797Z,179.07
2019-02-02T17:35:42.531Z,215.83
2019-02-02T17:38:11.230Z,253.77
2019-02-02T17:40:39.793Z,252.07
2019-02-02T17:43:08.477Z,260.60
2019-02-02T17:45:37.100Z,273.17
2019-02-02T17:48:13.100Z,236.60
2019-02-02T17:50:40.681Z,234.27
2019-02-02T17:53:10.178Z,249.00
2019-02-02T17:55:44.776Z,220.60
2019-02-02T17:58:16.462Z,229.70
2019-02-02T18:00:49.941Z,217.67
2019-02-02T18:03:18.742Z,226.57
2019-02-02T18:05:47.435Z,229.53
2019-02-02T18:08:15.976Z,213.53
2019-02-02T18:10:44.578Z,217.00
2019-02-02T18:13:19.020Z,295.23
2019-02-02T18:15:47.648Z,276.00
2019-02-02T18:18:16.278Z,216.63
2019-02-02T18:20:44.915Z,236.60
2019-02-02T18:23:18.323Z,234.93
2019-02-02T18:25:46.796Z,186.43
2019-02-02T18:28:15.408Z,187.67
2019-02-02T18:30:44.103Z,196.63
2019-02-02T18:33:12.760Z,167.67
2019-02-02T18:35:41.419Z,165.00
2019-02-02T18:38:10.114Z,170.40
2019-02-02T18:40:40.208Z,160.97
2019-02-02T18:43:10.125Z,89.93
2019-02-02T18:45:41.494Z,147.27
2019-02-02T18:48:10.124Z,123.40
2019-02-02T18:50:38.788Z,139.60
2019-02-02T18:53:07.461Z,124.90
2019-02-02T18:55:48.187Z,133.47
2019-02-02T18:58:16.870Z,117.03
2019-02-02T19:00:45.631Z,117.40
2019-02-02T19:03:14.320Z,123.30
2019-02-02T19:05:45.952Z,126.27
2019-02-02T19:08:14.631Z,121.83
2019-02-02T19:10:44.825Z,122.77
2019-02-02T19:13:13.476Z,114.80
2019-02-02T19:15:42.156Z,120.13
2019-02-02T19:18:11.469Z,117.70
2019-02-02T19:20:40.068Z,116.70
2019-02-02T19:23:08.750Z,128.03
2019-02-02T19:25:37.986Z,117.00
2019-02-02T19:28:06.921Z,127.77
2019-02-02T19:30:36.194Z,112.80
2019-02-02T19:33:05.626Z,121.87
2019-02-02T19:35:34.186Z,114.97
2019-02-02T19:38:02.842Z,114.57
2019-02-02T19:40:34.191Z,112.87
2019-02-02T19:43:05.722Z,116.63
2019-02-02T19:45:34.342Z,119.37
2019-02-02T19:48:03.011Z,114.70
2019-02-02T19:50:31.578Z,112.67
2019-02-02T19:53:00.349Z,96.13
2019-02-02T19:55:28.913Z,108.30
2019-02-02T19:58:00.328Z,111.90
2019-02-02T20:00:31.303Z,115.97
2019-02-02T20:03:00.164Z,119.47
2019-02-02T20:05:29.342Z,110.47
2019-02-02T20:07:58.263Z,112.07
2019-02-02T20:10:26.879Z,117.00
2019-02-02T20:12:55.506Z,120.17
2019-02-02T20:15:26.090Z,120.07
2019-02-02T20:17:54.832Z,117.57
2019-02-02T20:20:27.797Z,165.93
2019-02-02T20:22:56.955Z,168.50
2019-02-02T20:25:25.696Z,164.77
2019-02-02T20:27:54.335Z,175.07
2019-02-02T20:30:28.842Z,178.87
2019-02-02T20:32:57.643Z,170.17
2019-02-02T20:35:26.280Z,161.63
2019-02-02T20:37:54.918Z,133.30
2019-02-02T20:40:25.941Z,89.83
2019-02-02T20:42:54.881Z,100.73
2019-02-02T20:45:25.865Z,97.47
2019-02-02T20:47:54.475Z,98.50
2019-02-02T20:50:23.526Z,110.93
2019-02-02T20:52:54.915Z,117.83
2019-02-02T20:55:25.951Z,120.43
2019-02-02T20:57:55.040Z,141.73
2019-02-02T21:00:28.927Z,148.97
2019-02-02T21:02:57.723Z,146.53
2019-02-02T21:05:26.719Z,147.90
2019-02-02T21:07:55.343Z,169.83
2019-02-02T21:10:25.401Z,161.00
2019-02-02T21:12:54.703Z,162.93
2019-02-02T21:15:23.440Z,191.23
2019-02-02T21:17:52.198Z,197.07
2019-02-02T21:20:30.146Z,184.17
2019-02-02T21:22:58.809Z,180.90
2019-02-02T21:25:27.499Z,172.97
2019-02-02T21:27:56.234Z,185.47
2019-02-02T21:30:27.110Z,184.73
2019-02-02T21:32:55.785Z,175.90
2019-02-02T21:35:24.796Z,183.43
2019-02-02T21:37:56.607Z,168.80
2019-02-02T21:40:27.252Z,172.57
2019-02-02T21:43:00.376Z,172.20
2019-02-02T21:45:29.037Z,180.53
2019-02-02T21:47:57.681Z,161.60
2019-02-02T21:50:26.967Z,172.60
2019-02-02T21:52:55.808Z,172.80
2019-02-02T21:55:29.025Z,170.53
2019-02-02T21:57:57.709Z,172.80
2019-02-02T22:00:31.557Z,175.33
2019-02-02T22:03:00.237Z,175.83
2019-02-02T22:05:28.872Z,177.23
2019-02-02T22:07:57.505Z,184.77
2019-02-02T22:10:26.176Z,180.77
2019-02-02T22:12:55.191Z,194.73
2019-02-02T22:15:28.429Z,185.37
2019-02-02T22:17:57.060Z,196.83
2019-02-02T22:20:25.678Z,190.63
2019-02-02T22:22:54.302Z,183.83
2019-02-02T22:25:32.055Z,192.03
2019-02-02T22:28:00.693Z,190.33
2019-02-02T22:30:31.157Z,180.33
2019-02-02T22:33:00.008Z,179.57
2019-02-02T22:35:28.646Z,183.13
2019-02-02T22:37:57.624Z,177.13
2019-02-02T22:40:27.912Z,165.50
2019-02-02T22:42:56.853Z,161.13
2019-02-02T22:45:28.406Z,144.93
2019-02-02T22:47:57.091Z,147.13
2019-02-02T22:50:27.620Z,147.43
2019-02-02T22:52:56.355Z,155.53
2019-02-02T22:55:25.648Z,138.23
2019-02-02T22:57:54.468Z,141.43
2019-02-02T23:00:59.433Z,142.13
2019-02-02T23:03:34.153Z,138.43
2019-02-02T23:06:23.878Z,141.50
2019-02-02T23:09:16.243Z,151.13
2019-02-02T23:11:47.857Z,149.97
2019-02-02T23:14:43.734Z,151.33
2019-02-02T23:17:12.505Z,138.97
2019-02-02T23:19:41.135Z,127.80
2019-02-02T23:22:12.480Z,135.80
2019-02-02T23:24:41.050Z,129.47
2019-02-02T23:27:09.679Z,137.47
2019-02-02T23:29:38.350Z,136.57
2019-02-02T23:32:09.790Z,148.63
2019-02-02T23:34:38.477Z,142.83
2019-02-02T23:37:07.211Z,137.90
2019-02-02T23:39:40.080Z,132.93
2019-02-02T23:42:08.689Z,130.37
2019-02-02T23:44:37.384Z,132.57
2019-02-02T23:47:06.012Z,138.47
2019-02-02T23:49:34.889Z,138.87
2019-02-02T23:52:03.540Z,137.17
2019-02-02T23:54:32.112Z,143.37
2019-02-02T23:57:00.810Z,144.53
2019-02-02T23:59:29.439Z,133.70
